Accueil
METAR-TAF:

METAR-TAF

Aéroports :

Garrison Municipal Airport

Garrison, Dakota du Nord, États-Unis

latitude: 47-38-45N, longitude: 101-26-22W, altitude: 582 m

Observation

Le bulletin a été fait il y a 14 minutes, à 21:52 UTC
Vent 11 kt de nord avec des rafales jusqu'à 22 kt
Température -3°C
Humidité 93%
Pression 1017 hPa

METAR: KN60 202152Z AUTO 36011G22KT M03/M04 A3002 RMK AO1 SLP189 T10281039

Heure: 16:06 (22:06 UTC)


TAF: absent

Observations et prévisions météorologiques de plus de 4000 aéroports (messages METAR et TAF).

Les stations disponibles sont représentées par des disques jaunes et rouges sur la carte.

Passer la souris dessus pour voir le nom de la station.

Cliquer dessus pour voir les observations et prévisions météorologiques.

Pour changer de carte: cliquez sur les boutons verts avec une croix noire pour zoomer, sur le bouton vert avec un tiret pour effectuer un zoom arrière, ou sur les flèches vertes pour les cartes adjacentes.


METAR-TAF: